Time;durP1;ratioP1;P1;durP2;ratioP2;P2;SDS_P1;SDS_P2;PMS_P1;PMS_P2;Temp;Humidity;BMP_temperature;BMP_pressure;BME280_temperature;BME280_humidity;BME280_pressure;Samples;Min_cycle;Max_cycle;Signal;HPM_P1;HPM_P2
2022/06/19 00:00:24;;;;;;;13.23;5.60;;;;;;;;;;5056279;28;20426;-75
2022/06/19 00:02:50;;;;;;;12.27;5.73;;;;;;;;;;5054836;28;20417;-75
2022/06/19 00:05:16;;;;;;;15.27;5.97;;;;;;;;;;5055968;28;20436;-75
2022/06/19 00:07:43;;;;;;;21.20;5.43;;;;;;;;;;5056200;28;20456;-75
2022/06/19 00:10:09;;;;;;;15.10;6.20;;;;;;;;;;5056117;28;20459;-75
2022/06/19 00:12:35;;;;;;;17.30;5.90;;;;;;;;;;5056153;28;20792;-75
2022/06/19 00:15:01;;;;;;;15.07;5.20;;;;;;;;;;5055510;28;20517;-75
2022/06/19 00:17:27;;;;;;;13.43;5.27;;;;;;;;;;5055864;28;20448;-75
2022/06/19 00:19:54;;;;;;;12.17;5.70;;;;;;;;;;5056002;28;20751;-75
2022/06/19 00:22:20;;;;;;;10.27;5.50;;;;;;;;;;5038128;28;20499;-75
2022/06/19 00:24:46;;;;;;;11.10;4.80;;;;;;;;;;5055108;28;20464;-76
2022/06/19 00:27:12;;;;;;;16.43;5.60;;;;;;;;;;5055041;28;20480;-76
2022/06/19 00:29:37;;;;;;;16.80;5.13;;;;;;;;;;5055680;28;20467;-76
2022/06/19 00:32:07;;;;;;;12.80;4.90;;;;;;;;;;5054436;28;20428;-75
2022/06/19 00:34:34;;;;;;;11.60;5.73;;;;;;;;;;5054069;28;20494;-75
2022/06/19 00:37:01;;;;;;;14.83;5.73;;;;;;;;;;5055875;28;20508;-76
2022/06/19 00:39:28;;;;;;;13.37;5.30;;;;;;;;;;5055489;28;20420;-75
2022/06/19 00:41:54;;;;;;;7.93;4.97;;;;;;;;;;5055640;28;20420;-75
2022/06/19 00:44:21;;;;;;;9.67;5.30;;;;;;;;;;5055126;28;20405;-75
2022/06/19 00:46:47;;;;;;;13.90;5.17;;;;;;;;;;5055577;28;20821;-75
2022/06/19 00:49:23;;;;;;;14.80;5.03;;;;;;;;;;5055315;28;20483;-76
2022/06/19 00:51:54;;;;;;;11.53;4.57;;;;;;;;;;5055394;28;20408;-75
2022/06/19 00:54:21;;;;;;;14.73;4.90;;;;;;;;;;5054904;28;20506;-76
2022/06/19 00:56:47;;;;;;;11.50;4.80;;;;;;;;;;5054121;28;20413;-75
2022/06/19 00:59:14;;;;;;;20.30;5.37;;;;;;;;;;5055449;28;20554;-75
2022/06/19 01:01:41;;;;;;;16.93;6.20;;;;;;;;;;5054684;28;20454;-77
2022/06/19 01:04:13;;;;;;;12.67;4.80;;;;;;;;;;5054830;28;20930;-76
2022/06/19 01:06:39;;;;;;;16.03;5.10;;;;;;;;;;5055174;28;20403;-76
2022/06/19 01:09:05;;;;;;;14.80;5.47;;;;;;;;;;5054912;28;20408;-75
2022/06/19 01:11:34;;;;;;;15.00;5.70;;;;;;;;;;5054866;28;20408;-76
2022/06/19 01:14:01;;;;;;;10.53;4.70;;;;;;;;;;5053424;28;20448;-76
2022/06/19 01:16:27;;;;;;;13.33;5.43;;;;;;;;;;5054726;28;20424;-76
2022/06/19 01:18:53;;;;;;;13.40;5.10;;;;;;;;;;5054877;28;20849;-76
2022/06/19 01:21:19;;;;;;;12.97;5.73;;;;;;;;;;5054772;28;20510;-76
2022/06/19 01:23:55;;;;;;;14.47;5.00;;;;;;;;;;5054613;28;20440;-76
2022/06/19 01:26:22;;;;;;;8.27;4.93;;;;;;;;;;5054796;28;20428;-76
2022/06/19 01:28:56;;;;;;;13.10;5.17;;;;;;;;;;5054499;28;20897;-76
2022/06/19 01:31:27;;;;;;;11.60;5.43;;;;;;;;;;5054729;28;20443;-76
2022/06/19 01:33:57;;;;;;;10.53;4.90;;;;;;;;;;5054183;28;20832;-76
2022/06/19 01:36:23;;;;;;;9.63;4.70;;;;;;;;;;5053132;28;20436;-76
2022/06/19 01:38:50;;;;;;;10.40;5.20;;;;;;;;;;5054423;28;20417;-76
2022/06/19 01:41:26;;;;;;;9.77;5.23;;;;;;;;;;5054399;28;20491;-76
2022/06/19 01:43:53;;;;;;;12.67;5.80;;;;;;;;;;5053931;28;20444;-76
2022/06/19 01:46:20;;;;;;;16.17;5.40;;;;;;;;;;5053290;28;20444;-76
2022/06/19 01:48:46;;;;;;;17.50;5.47;;;;;;;;;;5054567;28;20451;-76
2022/06/19 01:51:12;;;;;;;9.40;5.50;;;;;;;;;;5054137;28;20463;-76
2022/06/19 01:53:38;;;;;;;10.03;5.70;;;;;;;;;;5053830;28;20466;-76
2022/06/19 01:56:05;;;;;;;13.30;5.63;;;;;;;;;;5052743;28;20428;-76
2022/06/19 01:58:33;;;;;;;13.90;6.43;;;;;;;;;;5054166;28;20436;-76
2022/06/19 02:01:01;;;;;;;18.13;6.40;;;;;;;;;;5052787;28;20424;-76
2022/06/19 02:03:29;;;;;;;11.33;5.60;;;;;;;;;;5053732;28;20451;-76
2022/06/19 02:05:57;;;;;;;18.83;5.80;;;;;;;;;;5053845;28;20431;-76
2022/06/19 02:08:24;;;;;;;13.67;5.00;;;;;;;;;;5053898;28;20495;-76
2022/06/19 02:10:51;;;;;;;13.83;5.53;;;;;;;;;;5053762;28;20498;-76
2022/06/19 02:13:19;;;;;;;11.27;4.50;;;;;;;;;;5053309;28;20465;-76
2022/06/19 02:15:46;;;;;;;11.53;5.13;;;;;;;;;;5053458;28;20838;-76
2022/06/19 02:18:15;;;;;;;12.03;5.43;;;;;;;;;;5053420;28;20415;-76
2022/06/19 02:20:42;;;;;;;18.23;5.50;;;;;;;;;;5053482;28;20400;-76
2022/06/19 02:23:08;;;;;;;18.20;5.30;;;;;;;;;;5053120;28;20416;-76
2022/06/19 02:25:35;;;;;;;14.90;4.70;;;;;;;;;;5053339;28;20436;-76
2022/06/19 02:28:02;;;;;;;13.77;5.70;;;;;;;;;;5053184;28;20482;-76
2022/06/19 02:30:29;;;;;;;12.57;5.67;;;;;;;;;;5053126;28;20472;-76
2022/06/19 02:32:56;;;;;;;9.53;4.83;;;;;;;;;;5051808;28;20436;-76
2022/06/19 02:35:23;;;;;;;9.43;5.03;;;;;;;;;;5053534;28;20421;-76
2022/06/19 02:37:51;;;;;;;9.90;5.13;;;;;;;;;;5053477;28;20495;-76
2022/06/19 02:40:32;;;;;;;16.80;6.60;;;;;;;;;;5053262;28;20412;-78
2022/06/19 02:42:58;;;;;;;18.40;9.20;;;;;;;;;;5052818;28;20392;-76
2022/06/19 02:45:26;;;;;;;18.43;9.23;;;;;;;;;;5053135;28;20971;-76
2022/06/19 02:47:53;;;;;;;15.33;7.20;;;;;;;;;;5052969;28;20415;-75
2022/06/19 02:50:23;;;;;;;16.73;8.60;;;;;;;;;;5052523;28;20949;-76
2022/06/19 02:52:50;;;;;;;19.53;11.33;;;;;;;;;;5052913;28;20462;-75
2022/06/19 02:55:16;;;;;;;16.13;10.80;;;;;;;;;;5052664;28;20420;-76
2022/06/19 02:57:42;;;;;;;19.10;11.20;;;;;;;;;;5053179;28;20440;-76
2022/06/19 03:00:12;;;;;;;18.53;10.97;;;;;;;;;;5053186;28;20741;-76
2022/06/19 03:02:38;;;;;;;15.07;10.17;;;;;;;;;;5052983;28;20412;-76
2022/06/19 03:05:06;;;;;;;16.93;9.83;;;;;;;;;;5052542;28;20554;-76
2022/06/19 03:07:32;;;;;;;12.53;8.63;;;;;;;;;;5053062;28;20405;-76
2022/06/19 03:09:58;;;;;;;10.50;7.20;;;;;;;;;;5052851;28;20455;-76
2022/06/19 03:12:24;;;;;;;19.20;7.60;;;;;;;;;;5053018;28;20401;-76
2022/06/19 03:14:51;;;;;;;8.43;6.80;;;;;;;;;;5052242;28;20434;-77
2022/06/19 03:17:21;;;;;;;9.53;6.07;;;;;;;;;;5052897;28;20404;-76
2022/06/19 03:19:47;;;;;;;6.03;5.37;;;;;;;;;;5052876;28;20447;-76
2022/06/19 03:22:13;;;;;;;8.87;5.33;;;;;;;;;;5052708;28;20379;-76
2022/06/19 03:24:39;;;;;;;5.10;4.50;;;;;;;;;;5052116;28;20812;-76
2022/06/19 03:27:06;;;;;;;6.80;4.40;;;;;;;;;;5052721;28;20917;-76
2022/06/19 03:29:32;;;;;;;6.13;4.30;;;;;;;;;;5052613;28;20466;-76
2022/06/19 03:31:58;;;;;;;5.50;3.47;;;;;;;;;;5052608;28;20406;-76
2022/06/19 03:34:24;;;;;;;8.93;4.20;;;;;;;;;;5050999;28;20508;-77
2022/06/19 03:36:51;;;;;;;5.43;3.40;;;;;;;;;;5052477;28;20824;-75
2022/06/19 03:39:17;;;;;;;10.13;4.50;;;;;;;;;;5052724;28;20544;-76
2022/06/19 03:41:43;;;;;;;11.47;3.80;;;;;;;;;;5052596;28;20543;-76
2022/06/19 03:44:09;;;;;;;8.27;3.80;;;;;;;;;;5052268;28;20396;-75
2022/06/19 03:46:35;;;;;;;5.20;3.80;;;;;;;;;;5052433;28;20395;-76
2022/06/19 03:49:02;;;;;;;9.67;4.53;;;;;;;;;;5052588;28;20481;-76
2022/06/19 03:51:28;;;;;;;6.97;3.33;;;;;;;;;;5052749;28;20405;-75
2022/06/19 03:53:55;;;;;;;8.30;3.67;;;;;;;;;;5051089;28;20387;-76
2022/06/19 03:56:25;;;;;;;10.03;3.17;;;;;;;;;;5051342;28;20421;-75
2022/06/19 03:58:52;;;;;;;14.43;3.20;;;;;;;;;;5052500;28;20495;-76
2022/06/19 04:01:20;;;;;;;9.83;4.00;;;;;;;;;;5055503;28;20383;-76
2022/06/19 04:03:46;;;;;;;8.07;3.27;;;;;;;;;;5055861;28;20379;-76
2022/06/19 04:06:13;;;;;;;11.60;3.50;;;;;;;;;;5055995;28;20846;-76
2022/06/19 04:08:40;;;;;;;10.47;3.63;;;;;;;;;;5055880;28;20410;-76
2022/06/19 04:11:06;;;;;;;10.43;3.43;;;;;;;;;;5055787;28;20571;-76
2022/06/19 04:13:34;;;;;;;14.93;3.57;;;;;;;;;;5055722;28;20743;-76
2022/06/19 04:16:00;;;;;;;13.97;4.03;;;;;;;;;;5056012;28;20443;-75
2022/06/19 04:18:26;;;;;;;13.20;3.43;;;;;;;;;;5055783;28;20928;-76
2022/06/19 04:20:52;;;;;;;8.87;2.80;;;;;;;;;;5055672;28;20478;-76
2022/06/19 04:23:18;;;;;;;13.23;4.53;;;;;;;;;;5055349;28;20455;-76
2022/06/19 04:25:45;;;;;;;13.07;3.83;;;;;;;;;;5055662;28;20503;-76
2022/06/19 04:28:11;;;;;;;7.33;2.83;;;;;;;;;;5054318;28;20926;-75
2022/06/19 04:30:38;;;;;;;11.77;3.60;;;;;;;;;;5055457;28;20809;-75
2022/06/19 04:33:04;;;;;;;13.10;4.07;;;;;;;;;;5055155;28;20407;-75
2022/06/19 04:35:30;;;;;;;10.70;2.90;;;;;;;;;;5055403;28;20792;-76
2022/06/19 04:37:56;;;;;;;12.53;2.60;;;;;;;;;;5055433;28;20417;-75
2022/06/19 04:40:22;;;;;;;4.50;2.37;;;;;;;;;;5054179;28;20413;-75
2022/06/19 04:42:49;;;;;;;8.03;3.13;;;;;;;;;;5055491;28;20482;-75
2022/06/19 04:45:15;;;;;;;7.43;2.47;;;;;;;;;;5054893;28;20428;-78
2022/06/19 04:47:41;;;;;;;11.20;2.77;;;;;;;;;;5055407;28;20924;-75
2022/06/19 04:50:07;;;;;;;11.63;2.90;;;;;;;;;;5055305;28;20492;-75
2022/06/19 04:52:33;;;;;;;13.40;3.70;;;;;;;;;;5055096;28;20386;-75
2022/06/19 04:54:59;;;;;;;11.73;3.40;;;;;;;;;;5054764;28;20784;-76
2022/06/19 04:57:25;;;;;;;16.00;3.07;;;;;;;;;;5054986;28;20416;-76
2022/06/19 04:59:51;;;;;;;12.97;3.60;;;;;;;;;;5055119;28;20379;-75
2022/06/19 05:02:17;;;;;;;9.83;3.53;;;;;;;;;;5055000;28;20417;-75
2022/06/19 05:04:43;;;;;;;13.10;2.77;;;;;;;;;;5053257;28;20435;-76
2022/06/19 05:07:09;;;;;;;17.53;3.20;;;;;;;;;;5055224;28;20528;-78
2022/06/19 05:09:35;;;;;;;9.63;3.20;;;;;;;;;;5054788;28;20943;-75
2022/06/19 05:12:01;;;;;;;19.57;4.30;;;;;;;;;;5054424;28;20496;-75
2022/06/19 05:14:27;;;;;;;10.30;3.83;;;;;;;;;;5054381;28;20418;-75
2022/06/19 05:16:53;;;;;;;19.57;3.50;;;;;;;;;;5054570;28;20387;-75
2022/06/19 05:19:19;;;;;;;6.53;2.90;;;;;;;;;;5054447;28;20383;-76
2022/06/19 05:21:45;;;;;;;9.30;3.60;;;;;;;;;;5054734;28;20405;-75
2022/06/19 05:24:11;;;;;;;15.80;3.70;;;;;;;;;;5054169;28;20390;-76
2022/06/19 05:26:37;;;;;;;10.80;3.77;;;;;;;;;;5054514;28;20383;-76
2022/06/19 05:29:04;;;;;;;9.00;3.47;;;;;;;;;;5054402;28;20416;-76
2022/06/19 05:31:31;;;;;;;9.30;3.67;;;;;;;;;;5054022;28;20414;-75
2022/06/19 05:33:58;;;;;;;10.57;3.03;;;;;;;;;;5054231;28;20811;-75
2022/06/19 05:36:26;;;;;;;10.17;3.10;;;;;;;;;;5054314;28;20921;-75
2022/06/19 05:38:52;;;;;;;10.10;3.53;;;;;;;;;;5054227;28;20390;-75
2022/06/19 05:41:18;;;;;;;8.93;3.10;;;;;;;;;;5053190;28;20478;-75
2022/06/19 05:43:44;;;;;;;19.30;3.53;;;;;;;;;;5053977;28;20387;-75
2022/06/19 05:46:15;;;;;;;9.77;3.37;;;;;;;;;;5054078;28;20433;-76
2022/06/19 05:48:41;;;;;;;12.00;3.73;;;;;;;;;;5054189;28;20405;-76
2022/06/19 05:51:12;;;;;;;21.40;4.40;;;;;;;;;;5054081;28;20437;-76
2022/06/19 05:53:40;;;;;;;19.30;4.60;;;;;;;;;;5053535;28;20372;-76
2022/06/19 05:56:06;;;;;;;13.43;3.73;;;;;;;;;;5054164;28;20431;-75
2022/06/19 05:58:33;;;;;;;10.70;3.77;;;;;;;;;;5053804;28;20391;-75
2022/06/19 06:01:00;;;;;;;12.53;4.10;;;;;;;;;;5052681;28;20411;-76
2022/06/19 06:03:26;;;;;;;9.57;3.67;;;;;;;;;;5053501;28;21003;-76
2022/06/19 06:05:52;;;;;;;16.87;3.97;;;;;;;;;;5053591;28;20456;-75
2022/06/19 06:08:19;;;;;;;11.13;3.47;;;;;;;;;;5053862;28;20415;-76
2022/06/19 06:10:45;;;;;;;16.10;4.30;;;;;;;;;;5053855;28;20465;-76
2022/06/19 06:13:13;;;;;;;14.13;4.03;;;;;;;;;;5053412;28;20383;-76
2022/06/19 06:15:39;;;;;;;21.17;4.13;;;;;;;;;;5053394;28;20436;-76
2022/06/19 06:18:05;;;;;;;11.10;3.50;;;;;;;;;;5053605;28;20458;-76
2022/06/19 06:20:31;;;;;;;14.07;3.73;;;;;;;;;;5053661;28;20387;-76
2022/06/19 06:22:57;;;;;;;19.20;5.20;;;;;;;;;;5051414;28;20422;-76
2022/06/19 06:25:23;;;;;;;17.77;4.10;;;;;;;;;;5053019;28;20414;-75
2022/06/19 06:27:49;;;;;;;13.07;3.47;;;;;;;;;;5053525;28;20913;-77
2022/06/19 06:30:16;;;;;;;15.77;5.00;;;;;;;;;;5053136;28;20446;-76
2022/06/19 06:32:42;;;;;;;13.40;4.10;;;;;;;;;;5051869;28;20952;-76
2022/06/19 06:35:09;;;;;;;11.77;3.00;;;;;;;;;;5052854;28;20414;-75
2022/06/19 06:37:35;;;;;;;13.40;3.50;;;;;;;;;;5053283;28;20416;-75
2022/06/19 06:40:01;;;;;;;20.33;4.67;;;;;;;;;;5053096;28;20426;-76
2022/06/19 06:42:27;;;;;;;16.83;3.60;;;;;;;;;;5051954;28;20428;-76
2022/06/19 06:44:53;;;;;;;10.43;3.90;;;;;;;;;;5052730;28;20443;-76
2022/06/19 06:47:19;;;;;;;10.60;3.20;;;;;;;;;;5053361;28;20376;-75
2022/06/19 06:49:45;;;;;;;7.67;2.97;;;;;;;;;;5053263;28;20522;-76
2022/06/19 06:52:11;;;;;;;11.73;4.20;;;;;;;;;;5053117;28;20914;-76
2022/06/19 06:54:38;;;;;;;14.53;3.83;;;;;;;;;;5052609;28;20527;-76
2022/06/19 06:57:05;;;;;;;13.40;4.30;;;;;;;;;;5053039;28;20411;-75
2022/06/19 06:59:31;;;;;;;9.23;3.60;;;;;;;;;;5053248;28;20487;-76
2022/06/19 07:01:57;;;;;;;11.10;4.00;;;;;;;;;;5052935;28;20423;-76
2022/06/19 07:04:23;;;;;;;11.00;4.33;;;;;;;;;;5052738;28;20408;-77
2022/06/19 07:06:49;;;;;;;12.27;4.20;;;;;;;;;;5052949;28;20471;-75
2022/06/19 07:09:15;;;;;;;15.33;3.87;;;;;;;;;;5052823;28;20512;-76
2022/06/19 07:11:43;;;;;;;14.23;3.67;;;;;;;;;;5053103;28;20888;-76
2022/06/19 07:14:09;;;;;;;14.90;4.40;;;;;;;;;;5052659;28;20507;-77
2022/06/19 07:16:36;;;;;;;17.17;4.20;;;;;;;;;;5051471;28;20870;-76
2022/06/19 07:19:02;;;;;;;13.27;4.27;;;;;;;;;;5053083;28;20391;-77
2022/06/19 07:21:28;;;;;;;11.20;4.43;;;;;;;;;;5052961;28;20391;-76
2022/06/19 07:23:54;;;;;;;8.20;3.80;;;;;;;;;;5052308;28;20848;-77
2022/06/19 07:26:21;;;;;;;14.57;4.40;;;;;;;;;;5052599;28;20729;-77
2022/06/19 07:28:47;;;;;;;16.60;6.20;;;;;;;;;;5052608;28;20940;-76
2022/06/19 07:31:14;;;;;;;11.30;3.90;;;;;;;;;;5052634;28;20593;-77
2022/06/19 07:33:40;;;;;;;8.27;2.87;;;;;;;;;;5052201;28;20431;-76
2022/06/19 07:36:13;;;;;;;7.17;2.83;;;;;;;;;;5054313;28;20488;-75
2022/06/19 07:38:39;;;;;;;8.27;3.20;;;;;;;;;;5056479;28;20408;-75
2022/06/19 07:41:05;;;;;;;13.63;2.93;;;;;;;;;;5056772;28;20391;-75
2022/06/19 07:43:31;;;;;;;9.10;2.80;;;;;;;;;;5056111;28;20835;-74
2022/06/19 07:45:57;;;;;;;9.80;2.63;;;;;;;;;;5056277;28;20446;-75
2022/06/19 07:51:08;;;;;;;9.97;2.20;;;;;;;;;;5056373;28;20532;-75
2022/06/19 07:53:34;;;;;;;6.67;2.13;;;;;;;;;;5046815;28;20909;-75
2022/06/19 07:55:59;;;;;;;12.63;3.30;;;;;;;;;;5038839;28;20464;-76
2022/06/19 07:58:26;;;;;;;6.30;2.53;;;;;;;;;;5036373;28;20409;-76
2022/06/19 08:00:52;;;;;;;12.13;3.07;;;;;;;;;;5036354;28;20441;-74
2022/06/19 08:03:18;;;;;;;9.00;2.90;;;;;;;;;;5035902;28;20878;-76
2022/06/19 08:05:46;;;;;;;8.30;2.70;;;;;;;;;;5036164;28;20440;-76
2022/06/19 08:08:17;;;;;;;10.40;3.40;;;;;;;;;;5036099;28;20381;-76
2022/06/19 08:10:44;;;;;;;16.27;3.20;;;;;;;;;;5035894;28;20465;-76
2022/06/19 08:13:11;;;;;;;8.90;2.20;;;;;;;;;;5035774;28;20422;-77
2022/06/19 08:15:37;;;;;;;11.90;3.03;;;;;;;;;;5035984;28;20429;-76
2022/06/19 08:18:04;;;;;;;17.07;4.10;;;;;;;;;;5035825;28;20405;-77
2022/06/19 08:20:30;;;;;;;21.97;3.20;;;;;;;;;;5035767;28;20413;-77
2022/06/19 08:22:57;;;;;;;14.10;3.27;;;;;;;;;;5035404;28;20475;-77
2022/06/19 08:25:24;;;;;;;8.27;2.37;;;;;;;;;;5034325;28;20472;-76
2022/06/19 08:27:51;;;;;;;18.17;2.87;;;;;;;;;;5035575;28;20975;-76
2022/06/19 08:30:19;;;;;;;12.33;2.80;;;;;;;;;;5034171;28;20461;-76
2022/06/19 08:32:45;;;;;;;14.87;2.63;;;;;;;;;;5035229;28;20460;-76
2022/06/19 08:35:11;;;;;;;15.10;3.10;;;;;;;;;;5035248;28;20790;-76
2022/06/19 08:37:37;;;;;;;11.93;3.43;;;;;;;;;;5035468;28;20418;-76
2022/06/19 08:40:08;;;;;;;15.27;2.93;;;;;;;;;;5035371;28;20424;-77
2022/06/19 08:42:33;;;;;;;15.03;2.43;;;;;;;;;;5034361;28;20436;-76
2022/06/19 08:45:21;;;;;;;17.93;2.90;;;;;;;;;;5033598;28;20966;-76
2022/06/19 08:47:56;;;;;;;11.97;2.90;;;;;;;;;;5034638;28;20513;-76
2022/06/19 08:50:25;;;;;;;12.90;2.90;;;;;;;;;;5035316;28;20971;-76
2022/06/19 08:52:51;;;;;;;9.40;2.90;;;;;;;;;;5035156;28;20504;-76
2022/06/19 08:55:22;;;;;;;11.97;2.57;;;;;;;;;;5035042;28;20449;-76
2022/06/19 08:57:51;;;;;;;7.73;2.60;;;;;;;;;;5035159;28;20582;-76
2022/06/19 09:00:51;;;;;;;8.00;2.73;;;;;;;;;;5033890;28;20429;-75
2022/06/19 09:03:28;;;;;;;9.03;3.40;;;;;;;;;;5022344;28;20505;-76
2022/06/19 09:06:04;;;;;;;9.20;3.30;;;;;;;;;;5034935;28;20524;-76
2022/06/19 09:08:30;;;;;;;6.20;2.53;;;;;;;;;;5035070;28;20433;-77
2022/06/19 09:10:56;;;;;;;12.30;2.80;;;;;;;;;;5034837;28;20454;-76
2022/06/19 09:13:22;;;;;;;11.97;3.50;;;;;;;;;;5034525;28;20899;-76
2022/06/19 09:15:54;;;;;;;7.63;2.40;;;;;;;;;;5034774;28;20429;-75
2022/06/19 09:18:22;;;;;;;11.00;2.97;;;;;;;;;;5034726;28;20410;-76
2022/06/19 09:20:59;;;;;;;10.90;3.53;;;;;;;;;;5033505;28;20409;-76
2022/06/19 09:23:50;;;;;;;7.63;2.37;;;;;;;;;;5034217;28;20488;-76
2022/06/19 09:26:26;;;;;;;11.13;3.13;;;;;;;;;;5034481;28;20425;-76
2022/06/19 09:28:57;;;;;;;8.23;3.13;;;;;;;;;;5034489;28;20466;-77
2022/06/19 09:31:29;;;;;;;4.73;2.33;;;;;;;;;;5034238;28;20465;-75
2022/06/19 09:34:25;;;;;;;10.83;3.17;;;;;;;;;;5034308;28;20496;-76
2022/06/19 09:37:05;;;;;;;10.57;2.40;;;;;;;;;;5033693;28;20456;-76
2022/06/19 09:39:46;;;;;;;10.17;2.40;;;;;;;;;;5034083;28;20898;-77
2022/06/19 09:42:15;;;;;;;10.60;3.03;;;;;;;;;;5034243;28;20456;-77
2022/06/19 09:44:46;;;;;;;10.70;3.27;;;;;;;;;;5033990;28;20430;-76
2022/06/19 09:47:14;;;;;;;11.10;3.50;;;;;;;;;;5034274;28;20507;-76
2022/06/19 09:49:40;;;;;;;6.33;2.73;;;;;;;;;;5033956;28;20500;-75
2022/06/19 09:52:15;;;;;;;8.03;2.80;;;;;;;;;;5033994;28;20415;-76
2022/06/19 09:54:53;;;;;;;11.03;3.40;;;;;;;;;;5033725;28;20426;-76
2022/06/19 09:57:21;;;;;;;12.00;3.27;;;;;;;;;;5033968;28;20401;-77
2022/06/19 09:59:53;;;;;;;11.73;3.47;;;;;;;;;;5033842;28;20412;-76
2022/06/19 10:02:34;;;;;;;9.87;3.00;;;;;;;;;;5033893;28;20411;-76
2022/06/19 10:05:12;;;;;;;9.97;3.33;;;;;;;;;;5033828;28;20783;-76
2022/06/19 10:07:42;;;;;;;9.90;3.80;;;;;;;;;;5033813;28;20504;-76
2022/06/19 10:10:23;;;;;;;11.37;3.87;;;;;;;;;;5034874;28;20457;-76
2022/06/19 10:12:51;;;;;;;13.63;3.90;;;;;;;;;;5044804;28;20829;-76
2022/06/19 10:15:19;;;;;;;10.83;4.30;;;;;;;;;;5033559;28;20432;-76
2022/06/19 10:17:48;;;;;;;10.53;4.30;;;;;;;;;;5049129;28;20959;-75
2022/06/19 10:20:15;;;;;;;8.30;3.30;;;;;;;;;;5053541;28;20413;-76
2022/06/19 10:22:54;;;;;;;8.13;3.37;;;;;;;;;;5052136;28;20416;-76
2022/06/19 10:25:26;;;;;;;11.03;3.03;;;;;;;;;;5053372;28;21024;-76
2022/06/19 10:27:55;;;;;;;8.37;4.23;;;;;;;;;;5053140;28;20873;-76
2022/06/19 10:30:46;;;;;;;11.47;3.83;;;;;;;;;;5033884;28;20820;-75
2022/06/19 10:33:31;;;;;;;11.30;3.80;;;;;;;;;;5033004;28;20438;-74
2022/06/19 10:36:01;;;;;;;9.03;3.30;;;;;;;;;;5033269;28;20447;-74
2022/06/19 10:38:50;;;;;;;23.50;4.17;;;;;;;;;;5033248;28;20409;-74
2022/06/19 10:44:26;;;;;;;8.33;3.93;;;;;;;;;;5037727;28;20818;-74
2022/06/19 10:47:08;;;;;;;14.67;4.00;;;;;;;;;;5041493;28;20419;-73
2022/06/19 10:49:34;;;;;;;7.50;4.03;;;;;;;;;;5042537;28;20460;-73
2022/06/19 10:52:08;;;;;;;11.97;4.30;;;;;;;;;;5052910;28;20422;-74
2022/06/19 10:54:45;;;;;;;12.30;4.33;;;;;;;;;;5052772;28;20456;-74
2022/06/19 10:57:16;;;;;;;11.73;4.33;;;;;;;;;;5053233;28;20372;-74
2022/06/19 10:59:42;;;;;;;10.67;4.20;;;;;;;;;;5052379;28;20785;-76
2022/06/19 11:04:55;;;;;;;13.03;4.80;;;;;;;;;;5052577;28;20430;-75
2022/06/19 11:07:22;;;;;;;7.00;4.00;;;;;;;;;;5053165;28;20495;-75
2022/06/19 11:09:51;;;;;;;9.90;4.30;;;;;;;;;;5048091;28;20464;-75
2022/06/19 11:12:25;;;;;;;19.00;5.27;;;;;;;;;;5038294;28;20421;-75
2022/06/19 11:14:54;;;;;;;10.83;5.33;;;;;;;;;;5036726;28;20440;-75
2022/06/19 11:17:35;;;;;;;15.17;5.57;;;;;;;;;;5050160;28;20409;-75
2022/06/19 11:20:16;;;;;;;12.60;5.67;;;;;;;;;;5054806;28;20433;-75
2022/06/19 11:22:43;;;;;;;9.10;5.23;;;;;;;;;;5036969;28;20426;-75
2022/06/19 11:25:22;;;;;;;13.30;4.93;;;;;;;;;;5036707;28;20425;-75
2022/06/19 11:27:51;;;;;;;11.43;5.30;;;;;;;;;;5036725;28;20412;-75
2022/06/19 11:30:26;;;;;;;12.33;5.10;;;;;;;;;;5036469;28;20979;-75
2022/06/19 11:32:52;;;;;;;11.57;5.13;;;;;;;;;;5043855;28;20725;-75
2022/06/19 11:35:18;;;;;;;8.90;4.83;;;;;;;;;;5056481;28;20429;-75
2022/06/19 11:37:51;;;;;;;11.20;4.23;;;;;;;;;;5056463;28;20415;-74
2022/06/19 11:40:19;;;;;;;10.50;5.30;;;;;;;;;;5056244;28;20422;-73
2022/06/19 11:42:52;;;;;;;16.23;4.97;;;;;;;;;;5056550;28;20414;-74
2022/06/19 11:45:18;;;;;;;12.13;5.57;;;;;;;;;;5038748;28;20464;-74
2022/06/19 11:47:44;;;;;;;15.43;6.27;;;;;;;;;;5056698;28;20899;-75
2022/06/19 11:50:18;;;;;;;17.10;6.00;;;;;;;;;;5056340;28;20610;-74
2022/06/19 11:52:55;;;;;;;15.13;6.27;;;;;;;;;;5055130;28;20493;-74
2022/06/19 11:55:21;;;;;;;16.53;6.00;;;;;;;;;;5056137;28;20778;-75
2022/06/19 11:57:49;;;;;;;17.03;5.30;;;;;;;;;;5056189;28;20411;-74
2022/06/19 12:00:23;;;;;;;10.80;4.97;;;;;;;;;;5056120;28;20421;-74
2022/06/19 12:02:53;;;;;;;14.47;4.77;;;;;;;;;;5061037;28;20423;-74
2022/06/19 12:05:22;;;;;;;12.53;4.70;;;;;;;;;;5075687;28;20466;-74
2022/06/19 12:07:48;;;;;;;11.40;4.50;;;;;;;;;;5074738;28;20979;-75
2022/06/19 12:10:14;;;;;;;12.27;4.23;;;;;;;;;;5056783;28;20562;-74
2022/06/19 12:12:40;;;;;;;12.73;4.57;;;;;;;;;;5042382;28;20841;-74
2022/06/19 12:15:12;;;;;;;8.90;4.33;;;;;;;;;;5035879;28;20466;-74
2022/06/19 12:17:40;;;;;;;9.57;4.73;;;;;;;;;;5055684;28;20970;-75
2022/06/19 12:20:06;;;;;;;13.77;5.33;;;;;;;;;;5054992;28;20463;-75
2022/06/19 12:22:32;;;;;;;18.80;6.60;;;;;;;;;;5045534;28;20418;-74
2022/06/19 12:25:08;;;;;;;13.93;6.40;;;;;;;;;;5036403;28;20537;-75
2022/06/19 12:27:38;;;;;;;9.77;5.40;;;;;;;;;;5046758;28;20421;-74
2022/06/19 12:30:06;;;;;;;11.03;4.90;;;;;;;;;;5040926;28;20553;-73
2022/06/19 12:32:35;;;;;;;13.80;6.30;;;;;;;;;;5041796;28;20516;-73
2022/06/19 12:35:08;;;;;;;7.63;3.73;;;;;;;;;;5054226;28;20436;-73
2022/06/19 12:37:35;;;;;;;10.40;5.03;;;;;;;;;;5055368;28;20408;-76
2022/06/19 12:40:03;;;;;;;7.10;3.90;;;;;;;;;;5054042;28;20420;-75
2022/06/19 12:42:35;;;;;;;11.87;4.50;;;;;;;;;;5055173;28;20890;-75
2022/06/19 12:45:04;;;;;;;7.47;2.90;;;;;;;;;;5053363;28;20436;-73
2022/06/19 12:47:48;;;;;;;9.03;2.60;;;;;;;;;;5053887;28;20448;-73
2022/06/19 12:50:33;;;;;;;6.53;2.83;;;;;;;;;;5051896;28;20456;-75
2022/06/19 12:52:59;;;;;;;16.07;3.27;;;;;;;;;;5052682;28;21011;-78
2022/06/19 12:55:25;;;;;;;8.70;2.83;;;;;;;;;;5050401;28;20421;-74
2022/06/19 12:57:51;;;;;;;7.80;2.27;;;;;;;;;;5042932;28;20925;-74
2022/06/19 13:00:26;;;;;;;15.27;3.03;;;;;;;;;;5045089;28;20402;-75
2022/06/19 13:02:52;;;;;;;6.03;3.13;;;;;;;;;;5052329;28;20448;-76
2022/06/19 13:05:26;;;;;;;8.60;3.17;;;;;;;;;;5047133;28;20853;-74
2022/06/19 13:08:15;;;;;;;10.93;3.60;;;;;;;;;;5045250;28;20465;-75
2022/06/19 13:11:00;;;;;;;13.57;2.97;;;;;;;;;;5051867;28;20538;-75
2022/06/19 13:13:33;;;;;;;10.60;3.20;;;;;;;;;;5054658;28;20495;-75
2022/06/19 13:16:05;;;;;;;9.80;3.47;;;;;;;;;;5054685;28;20513;-74
2022/06/19 13:18:37;;;;;;;9.40;3.93;;;;;;;;;;5054650;28;20472;-74
2022/06/19 13:21:21;;;;;;;13.73;3.67;;;;;;;;;;5054570;28;20456;-75
2022/06/19 13:23:57;;;;;;;8.53;3.23;;;;;;;;;;5054184;28;20418;-75
2022/06/19 13:29:27;;;;;;;13.37;3.87;;;;;;;;;;5052507;28;20461;-73
2022/06/19 13:32:07;;;;;;;7.40;2.60;;;;;;;;;;5053859;28;20941;-74
2022/06/19 13:34:42;;;;;;;9.90;3.37;;;;;;;;;;5053585;28;20424;-74
2022/06/19 13:37:08;;;;;;;10.90;3.47;;;;;;;;;;5054098;28;20447;-76
2022/06/19 13:39:43;;;;;;;15.10;4.03;;;;;;;;;;5054208;28;20433;-76
2022/06/19 13:42:18;;;;;;;15.00;3.23;;;;;;;;;;5054424;28;20406;-75
2022/06/19 13:44:54;;;;;;;10.00;3.73;;;;;;;;;;5053873;28;20435;-76
2022/06/19 13:47:31;;;;;;;10.17;3.77;;;;;;;;;;5054058;28;20769;-76
2022/06/19 13:49:56;;;;;;;12.00;4.47;;;;;;;;;;5054103;28;20462;-76
2022/06/19 13:52:33;;;;;;;10.30;3.47;;;;;;;;;;5054023;28;20420;-75
2022/06/19 13:55:09;;;;;;;11.33;3.60;;;;;;;;;;5053768;28;20424;-76
2022/06/19 13:57:42;;;;;;;12.60;3.23;;;;;;;;;;5052712;28;20442;-77
2022/06/19 14:00:27;;;;;;;9.60;3.50;;;;;;;;;;5053933;28;20405;-76
2022/06/19 14:02:53;;;;;;;12.33;3.57;;;;;;;;;;5053595;28;20401;-76
2022/06/19 14:05:21;;;;;;;8.87;2.67;;;;;;;;;;5053568;28;20427;-76
2022/06/19 14:08:07;;;;;;;7.27;3.10;;;;;;;;;;5052546;28;20508;-75
2022/06/19 14:10:36;;;;;;;9.67;3.50;;;;;;;;;;5053710;28;20455;-75
2022/06/19 14:13:08;;;;;;;9.43;3.40;;;;;;;;;;5052146;28;20820;-76
2022/06/19 14:15:39;;;;;;;10.17;3.07;;;;;;;;;;5053678;28;20445;-76
2022/06/19 14:18:05;;;;;;;5.90;2.47;;;;;;;;;;5053800;28;20437;-76
2022/06/19 14:20:36;;;;;;;9.20;3.20;;;;;;;;;;5053704;28;20451;-76
2022/06/19 14:23:16;;;;;;;8.70;3.73;;;;;;;;;;5053132;28;20776;-76
2022/06/19 14:25:49;;;;;;;11.33;3.13;;;;;;;;;;5053436;28;20796;-76
2022/06/19 14:28:22;;;;;;;8.50;3.03;;;;;;;;;;5052095;28;20914;-76
2022/06/19 14:30:50;;;;;;;10.90;4.07;;;;;;;;;;5053170;28;20470;-75
2022/06/19 14:33:32;;;;;;;11.53;2.93;;;;;;;;;;5052721;28;20434;-76
2022/06/19 14:36:09;;;;;;;6.77;2.80;;;;;;;;;;5053156;28;20983;-75
2022/06/19 14:38:35;;;;;;;8.93;3.70;;;;;;;;;;5053183;28;20822;-75
2022/06/19 14:41:04;;;;;;;10.30;3.10;;;;;;;;;;5053226;28;20428;-75
2022/06/19 14:43:32;;;;;;;8.93;3.30;;;;;;;;;;5052870;28;20445;-76
2022/06/19 14:46:04;;;;;;;8.33;3.20;;;;;;;;;;5052349;28;20437;-75
2022/06/19 14:48:42;;;;;;;4.90;2.33;;;;;;;;;;5053258;28;20416;-75
2022/06/19 14:51:31;;;;;;;11.40;3.40;;;;;;;;;;5053077;28;20835;-76
2022/06/19 14:54:12;;;;;;;10.03;2.87;;;;;;;;;;5052751;28;20409;-75
2022/06/19 14:56:57;;;;;;;10.83;3.23;;;;;;;;;;5053070;28;20756;-75